sensor_id;sensor_type;location;lat;lon;timestamp;temperature;humidity
6164;DHT22;3114;48.362;10.994;2023-03-23T00:01:30;12.50;99.90
6164;DHT22;3114;48.362;10.994;2023-03-23T00:04:03;12.60;99.90
6164;DHT22;3114;48.362;10.994;2023-03-23T00:06:30;12.60;99.90
6164;DHT22;3114;48.362;10.994;2023-03-23T00:08:58;12.50;99.90
6164;DHT22;3114;48.362;10.994;2023-03-23T00:11:29;12.50;99.90
6164;DHT22;3114;48.362;10.994;2023-03-23T00:14:00;12.80;99.90
6164;DHT22;3114;48.362;10.994;2023-03-23T00:16:30;12.90;99.90
6164;DHT22;3114;48.362;10.994;2023-03-23T00:18:59;13.00;99.90
6164;DHT22;3114;48.362;10.994;2023-03-23T00:21:28;13.10;99.90
6164;DHT22;3114;48.362;10.994;2023-03-23T00:24:02;13.10;99.90
6164;DHT22;3114;48.362;10.994;2023-03-23T00:26:30;13.10;99.90
6164;DHT22;3114;48.362;10.994;2023-03-23T00:28:59;13.10;99.90
6164;DHT22;3114;48.362;10.994;2023-03-23T00:31:28;13.20;99.90
6164;DHT22;3114;48.362;10.994;2023-03-23T00:33:59;13.00;99.90
6164;DHT22;3114;48.362;10.994;2023-03-23T00:36:30;12.70;99.90
6164;DHT22;3114;48.362;10.994;2023-03-23T00:38:57;12.80;99.90
6164;DHT22;3114;48.362;10.994;2023-03-23T00:41:25;12.80;99.90
6164;DHT22;3114;48.362;10.994;2023-03-23T00:43:54;12.60;99.90
6164;DHT22;3114;48.362;10.994;2023-03-23T00:46:21;12.70;99.90
6164;DHT22;3114;48.362;10.994;2023-03-23T00:48:49;13.00;99.90
6164;DHT22;3114;48.362;10.994;2023-03-23T00:51:17;12.90;99.90
6164;DHT22;3114;48.362;10.994;2023-03-23T00:53:44;13.20;99.90
6164;DHT22;3114;48.362;10.994;2023-03-23T00:56:11;13.30;99.90
6164;DHT22;3114;48.362;10.994;2023-03-23T00:58:39;13.20;99.90
6164;DHT22;3114;48.362;10.994;2023-03-23T01:01:06;13.30;99.90
6164;DHT22;3114;48.362;10.994;2023-03-23T01:03:34;13.30;99.90
6164;DHT22;3114;48.362;10.994;2023-03-23T01:06:08;13.40;99.90
6164;DHT22;3114;48.362;10.994;2023-03-23T01:08:39;13.30;99.90
6164;DHT22;3114;48.362;10.994;2023-03-23T01:11:12;13.30;99.90
6164;DHT22;3114;48.362;10.994;2023-03-23T01:13:40;13.20;99.90
6164;DHT22;3114;48.362;10.994;2023-03-23T01:16:08;12.70;99.90
6164;DHT22;3114;48.362;10.994;2023-03-23T01:18:35;13.30;99.90
6164;DHT22;3114;48.362;10.994;2023-03-23T01:21:08;13.30;99.90
6164;DHT22;3114;48.362;10.994;2023-03-23T01:23:36;13.20;99.90
6164;DHT22;3114;48.362;10.994;2023-03-23T01:26:04;13.20;99.90
6164;DHT22;3114;48.362;10.994;2023-03-23T01:28:31;13.20;99.90
6164;DHT22;3114;48.362;10.994;2023-03-23T01:31:02;13.10;99.90
6164;DHT22;3114;48.362;10.994;2023-03-23T01:33:29;13.20;99.90
6164;DHT22;3114;48.362;10.994;2023-03-23T01:35:56;13.20;99.90
6164;DHT22;3114;48.362;10.994;2023-03-23T01:38:25;13.10;99.90
6164;DHT22;3114;48.362;10.994;2023-03-23T01:40:52;13.10;99.90
6164;DHT22;3114;48.362;10.994;2023-03-23T01:43:20;13.80;99.90
6164;DHT22;3114;48.362;10.994;2023-03-23T01:45:47;13.90;99.90
6164;DHT22;3114;48.362;10.994;2023-03-23T01:48:17;13.30;99.90
6164;DHT22;3114;48.362;10.994;2023-03-23T01:50:51;13.20;99.90
6164;DHT22;3114;48.362;10.994;2023-03-23T01:53:22;13.20;99.90
6164;DHT22;3114;48.362;10.994;2023-03-23T01:55:54;13.00;99.90
6164;DHT22;3114;48.362;10.994;2023-03-23T01:58:26;13.10;99.90
6164;DHT22;3114;48.362;10.994;2023-03-23T02:00:54;13.00;99.90
6164;DHT22;3114;48.362;10.994;2023-03-23T02:03:21;13.00;99.90
6164;DHT22;3114;48.362;10.994;2023-03-23T02:05:49;13.00;99.90
6164;DHT22;3114;48.362;10.994;2023-03-23T02:08:17;13.10;99.90
6164;DHT22;3114;48.362;10.994;2023-03-23T02:10:45;13.00;99.90
6164;DHT22;3114;48.362;10.994;2023-03-23T02:13:14;12.80;99.90
6164;DHT22;3114;48.362;10.994;2023-03-23T02:15:48;13.00;99.90
6164;DHT22;3114;48.362;10.994;2023-03-23T02:18:32;13.00;99.90
6164;DHT22;3114;48.362;10.994;2023-03-23T02:24:31;13.10;99.90
6164;DHT22;3114;48.362;10.994;2023-03-23T02:27:09;13.10;99.90
6164;DHT22;3114;48.362;10.994;2023-03-23T02:30:04;13.10;99.90
6164;DHT22;3114;48.362;10.994;2023-03-23T02:35:37;12.90;99.90
6164;DHT22;3114;48.362;10.994;2023-03-23T02:38:09;13.00;99.90
6164;DHT22;3114;48.362;10.994;2023-03-23T02:40:40;13.20;99.90
6164;DHT22;3114;48.362;10.994;2023-03-23T02:43:10;13.10;99.90
6164;DHT22;3114;48.362;10.994;2023-03-23T02:45:38;13.00;99.90
6164;DHT22;3114;48.362;10.994;2023-03-23T02:48:07;13.00;99.90
6164;DHT22;3114;48.362;10.994;2023-03-23T02:50:37;13.10;99.90
6164;DHT22;3114;48.362;10.994;2023-03-23T02:53:12;13.10;99.90
6164;DHT22;3114;48.362;10.994;2023-03-23T02:55:42;13.00;99.90
6164;DHT22;3114;48.362;10.994;2023-03-23T02:58:10;13.00;99.90
6164;DHT22;3114;48.362;10.994;2023-03-23T03:00:38;13.00;99.90
6164;DHT22;3114;48.362;10.994;2023-03-23T03:03:08;12.70;99.90
6164;DHT22;3114;48.362;10.994;2023-03-23T03:05:42;12.90;99.90
6164;DHT22;3114;48.362;10.994;2023-03-23T03:08:15;12.80;99.90
6164;DHT22;3114;48.362;10.994;2023-03-23T03:10:50;12.80;99.90
6164;DHT22;3114;48.362;10.994;2023-03-23T03:13:25;12.50;99.90
6164;DHT22;3114;48.362;10.994;2023-03-23T03:16:00;12.40;99.90
6164;DHT22;3114;48.362;10.994;2023-03-23T03:18:34;12.60;99.90
6164;DHT22;3114;48.362;10.994;2023-03-23T03:21:08;12.40;99.90
6164;DHT22;3114;48.362;10.994;2023-03-23T03:23:39;12.40;99.90
6164;DHT22;3114;48.362;10.994;2023-03-23T03:26:09;12.10;99.90
6164;DHT22;3114;48.362;10.994;2023-03-23T03:28:38;12.50;99.90
6164;DHT22;3114;48.362;10.994;2023-03-23T03:31:06;12.40;99.90
6164;DHT22;3114;48.362;10.994;2023-03-23T03:33:34;12.50;99.90
6164;DHT22;3114;48.362;10.994;2023-03-23T03:36:03;12.40;99.90
6164;DHT22;3114;48.362;10.994;2023-03-23T03:38:42;12.50;99.90
6164;DHT22;3114;48.362;10.994;2023-03-23T03:41:09;12.60;99.90
6164;DHT22;3114;48.362;10.994;2023-03-23T03:43:38;12.40;99.90
6164;DHT22;3114;48.362;10.994;2023-03-23T03:46:05;12.30;99.90
6164;DHT22;3114;48.362;10.994;2023-03-23T03:48:32;12.40;99.90
6164;DHT22;3114;48.362;10.994;2023-03-23T03:50:59;12.50;99.90
6164;DHT22;3114;48.362;10.994;2023-03-23T03:53:27;12.70;99.90
6164;DHT22;3114;48.362;10.994;2023-03-23T03:55:55;12.80;99.90
6164;DHT22;3114;48.362;10.994;2023-03-23T03:58:27;12.60;99.90
6164;DHT22;3114;48.362;10.994;2023-03-23T04:00:58;12.60;99.90
6164;DHT22;3114;48.362;10.994;2023-03-23T04:03:25;12.70;99.90
6164;DHT22;3114;48.362;10.994;2023-03-23T04:05:53;12.70;99.90
6164;DHT22;3114;48.362;10.994;2023-03-23T04:08:21;12.00;99.90
6164;DHT22;3114;48.362;10.994;2023-03-23T04:10:48;12.60;99.90
6164;DHT22;3114;48.362;10.994;2023-03-23T04:13:17;12.40;99.90
6164;DHT22;3114;48.362;10.994;2023-03-23T04:15:45;12.30;99.90
6164;DHT22;3114;48.362;10.994;2023-03-23T04:18:13;12.30;99.90
6164;DHT22;3114;48.362;10.994;2023-03-23T04:20:42;12.00;99.90
6164;DHT22;3114;48.362;10.994;2023-03-23T04:23:10;11.90;99.90
6164;DHT22;3114;48.362;10.994;2023-03-23T04:25:37;11.80;99.90
6164;DHT22;3114;48.362;10.994;2023-03-23T04:28:06;11.60;99.90
6164;DHT22;3114;48.362;10.994;2023-03-23T04:30:37;11.80;99.90
6164;DHT22;3114;48.362;10.994;2023-03-23T04:33:04;12.10;99.90
6164;DHT22;3114;48.362;10.994;2023-03-23T04:35:31;11.90;99.90
6164;DHT22;3114;48.362;10.994;2023-03-23T04:37:57;13.00;99.90
6164;DHT22;3114;48.362;10.994;2023-03-23T04:40:25;12.50;99.90
6164;DHT22;3114;48.362;10.994;2023-03-23T04:42:52;12.70;99.90
6164;DHT22;3114;48.362;10.994;2023-03-23T04:45:23;12.60;99.90
6164;DHT22;3114;48.362;10.994;2023-03-23T04:47:54;12.60;99.90
6164;DHT22;3114;48.362;10.994;2023-03-23T04:50:24;12.70;99.90
6164;DHT22;3114;48.362;10.994;2023-03-23T04:52:52;12.70;99.90
6164;DHT22;3114;48.362;10.994;2023-03-23T04:55:20;12.80;99.90
6164;DHT22;3114;48.362;10.994;2023-03-23T04:57:47;12.80;99.90
6164;DHT22;3114;48.362;10.994;2023-03-23T05:00:14;12.90;99.90
6164;DHT22;3114;48.362;10.994;2023-03-23T05:02:47;12.80;99.90
6164;DHT22;3114;48.362;10.994;2023-03-23T05:05:19;12.80;99.90
6164;DHT22;3114;48.362;10.994;2023-03-23T05:07:47;12.80;99.90
6164;DHT22;3114;48.362;10.994;2023-03-23T05:10:15;12.80;99.90
6164;DHT22;3114;48.362;10.994;2023-03-23T05:12:43;12.90;99.90
6164;DHT22;3114;48.362;10.994;2023-03-23T05:15:11;12.90;99.90
6164;DHT22;3114;48.362;10.994;2023-03-23T05:17:42;12.90;99.90
6164;DHT22;3114;48.362;10.994;2023-03-23T05:20:11;13.00;99.90
6164;DHT22;3114;48.362;10.994;2023-03-23T05:22:44;12.90;99.90
6164;DHT22;3114;48.362;10.994;2023-03-23T05:25:13;12.80;99.90
6164;DHT22;3114;48.362;10.994;2023-03-23T05:27:40;13.40;99.90
6164;DHT22;3114;48.362;10.994;2023-03-23T05:30:09;12.90;99.90
6164;DHT22;3114;48.362;10.994;2023-03-23T05:32:37;12.90;99.90
6164;DHT22;3114;48.362;10.994;2023-03-23T05:35:04;12.90;99.90
6164;DHT22;3114;48.362;10.994;2023-03-23T05:37:31;13.00;99.90
6164;DHT22;3114;48.362;10.994;2023-03-23T05:40:00;12.90;99.90
6164;DHT22;3114;48.362;10.994;2023-03-23T05:42:31;13.00;99.90
6164;DHT22;3114;48.362;10.994;2023-03-23T05:44:58;13.00;99.90
6164;DHT22;3114;48.362;10.994;2023-03-23T05:47:26;13.10;99.90
6164;DHT22;3114;48.362;10.994;2023-03-23T05:49:53;13.10;99.90
6164;DHT22;3114;48.362;10.994;2023-03-23T05:52:20;13.00;99.90
6164;DHT22;3114;48.362;10.994;2023-03-23T05:54:50;13.10;99.90
6164;DHT22;3114;48.362;10.994;2023-03-23T05:57:19;13.10;99.90
6164;DHT22;3114;48.362;10.994;2023-03-23T05:59:48;13.10;99.90
6164;DHT22;3114;48.362;10.994;2023-03-23T06:02:16;12.90;99.90
6164;DHT22;3114;48.362;10.994;2023-03-23T06:04:43;13.00;99.90
6164;DHT22;3114;48.362;10.994;2023-03-23T06:07:10;13.00;99.90
6164;DHT22;3114;48.362;10.994;2023-03-23T06:09:40;13.00;99.90
6164;DHT22;3114;48.362;10.994;2023-03-23T06:12:07;13.00;99.90
6164;DHT22;3114;48.362;10.994;2023-03-23T06:14:38;13.10;99.90
6164;DHT22;3114;48.362;10.994;2023-03-23T06:17:05;13.10;99.90
6164;DHT22;3114;48.362;10.994;2023-03-23T06:19:33;12.30;99.90
6164;DHT22;3114;48.362;10.994;2023-03-23T06:22:00;13.30;99.90
6164;DHT22;3114;48.362;10.994;2023-03-23T06:24:29;13.30;99.90
6164;DHT22;3114;48.362;10.994;2023-03-23T06:26:56;13.20;99.90
6164;DHT22;3114;48.362;10.994;2023-03-23T06:29:25;13.20;99.90
6164;DHT22;3114;48.362;10.994;2023-03-23T06:31:56;13.20;99.90
6164;DHT22;3114;48.362;10.994;2023-03-23T06:34:24;13.20;99.90
6164;DHT22;3114;48.362;10.994;2023-03-23T06:36:51;13.20;99.90
6164;DHT22;3114;48.362;10.994;2023-03-23T06:39:19;13.30;99.90
6164;DHT22;3114;48.362;10.994;2023-03-23T06:41:48;13.40;99.90
6164;DHT22;3114;48.362;10.994;2023-03-23T06:44:16;13.50;99.90
6164;DHT22;3114;48.362;10.994;2023-03-23T06:46:43;13.60;99.90
6164;DHT22;3114;48.362;10.994;2023-03-23T06:49:11;13.60;99.90
6164;DHT22;3114;48.362;10.994;2023-03-23T06:51:38;13.80;99.90
6164;DHT22;3114;48.362;10.994;2023-03-23T06:54:05;13.80;99.90
6164;DHT22;3114;48.362;10.994;2023-03-23T06:56:32;13.70;99.90
6164;DHT22;3114;48.362;10.994;2023-03-23T06:59:02;14.00;99.90
6164;DHT22;3114;48.362;10.994;2023-03-23T07:01:29;13.80;99.90
6164;DHT22;3114;48.362;10.994;2023-03-23T07:03:56;13.80;99.90
6164;DHT22;3114;48.362;10.994;2023-03-23T07:06:25;13.90;99.90
6164;DHT22;3114;48.362;10.994;2023-03-23T07:08:52;14.00;99.90
6164;DHT22;3114;48.362;10.994;2023-03-23T07:11:19;14.30;99.90
6164;DHT22;3114;48.362;10.994;2023-03-23T07:13:46;14.50;99.90
6164;DHT22;3114;48.362;10.994;2023-03-23T07:16:15;14.70;99.90
6164;DHT22;3114;48.362;10.994;2023-03-23T07:18:42;14.70;99.90
6164;DHT22;3114;48.362;10.994;2023-03-23T07:21:09;14.70;99.90
6164;DHT22;3114;48.362;10.994;2023-03-23T07:23:37;14.70;99.90
6164;DHT22;3114;48.362;10.994;2023-03-23T07:26:04;14.70;99.90
6164;DHT22;3114;48.362;10.994;2023-03-23T07:28:32;14.50;99.90
6164;DHT22;3114;48.362;10.994;2023-03-23T07:30:59;14.60;99.90
6164;DHT22;3114;48.362;10.994;2023-03-23T07:33:26;14.70;99.90
6164;DHT22;3114;48.362;10.994;2023-03-23T07:35:53;14.80;99.90
6164;DHT22;3114;48.362;10.994;2023-03-23T07:38:20;14.70;99.90
6164;DHT22;3114;48.362;10.994;2023-03-23T07:40:48;14.70;99.90
6164;DHT22;3114;48.362;10.994;2023-03-23T07:43:15;14.90;99.90
6164;DHT22;3114;48.362;10.994;2023-03-23T07:45:42;15.10;99.90
6164;DHT22;3114;48.362;10.994;2023-03-23T07:48:09;15.00;99.90
6164;DHT22;3114;48.362;10.994;2023-03-23T07:50:36;15.00;99.90
6164;DHT22;3114;48.362;10.994;2023-03-23T07:53:03;14.90;99.90
6164;DHT22;3114;48.362;10.994;2023-03-23T07:55:30;15.00;99.90
6164;DHT22;3114;48.362;10.994;2023-03-23T07:57:59;15.10;99.90
6164;DHT22;3114;48.362;10.994;2023-03-23T08:00:26;15.00;99.90
6164;DHT22;3114;48.362;10.994;2023-03-23T08:02:54;14.90;99.90
6164;DHT22;3114;48.362;10.994;2023-03-23T08:05:22;15.00;99.90
6164;DHT22;3114;48.362;10.994;2023-03-23T08:07:51;15.10;99.90
6164;DHT22;3114;48.362;10.994;2023-03-23T08:10:20;15.20;99.90
6164;DHT22;3114;48.362;10.994;2023-03-23T08:12:51;15.20;99.90
6164;DHT22;3114;48.362;10.994;2023-03-23T08:15:21;15.30;99.90
6164;DHT22;3114;48.362;10.994;2023-03-23T08:17:48;15.20;99.90
6164;DHT22;3114;48.362;10.994;2023-03-23T08:20:16;15.40;99.90
6164;DHT22;3114;48.362;10.994;2023-03-23T08:22:45;15.50;99.90
6164;DHT22;3114;48.362;10.994;2023-03-23T08:25:15;15.40;99.90
6164;DHT22;3114;48.362;10.994;2023-03-23T08:27:43;15.50;99.90
6164;DHT22;3114;48.362;10.994;2023-03-23T08:30:12;15.50;99.90
6164;DHT22;3114;48.362;10.994;2023-03-23T08:32:41;15.60;99.90
6164;DHT22;3114;48.362;10.994;2023-03-23T08:35:09;15.80;99.90
6164;DHT22;3114;48.362;10.994;2023-03-23T08:37:36;15.80;99.90
6164;DHT22;3114;48.362;10.994;2023-03-23T08:40:05;15.90;99.90
6164;DHT22;3114;48.362;10.994;2023-03-23T08:42:35;16.00;99.90
6164;DHT22;3114;48.362;10.994;2023-03-23T08:45:03;15.90;99.90
6164;DHT22;3114;48.362;10.994;2023-03-23T08:47:30;16.10;99.90
6164;DHT22;3114;48.362;10.994;2023-03-23T08:49:58;16.00;99.90
6164;DHT22;3114;48.362;10.994;2023-03-23T08:52:25;16.10;99.90
6164;DHT22;3114;48.362;10.994;2023-03-23T08:58:45;15.90;99.90
6164;DHT22;3114;48.362;10.994;2023-03-23T09:01:15;15.80;99.90
6164;DHT22;3114;48.362;10.994;2023-03-23T09:03:42;15.70;99.90
6164;DHT22;3114;48.362;10.994;2023-03-23T09:06:10;15.80;99.90
6164;DHT22;3114;48.362;10.994;2023-03-23T09:08:38;15.90;99.90
6164;DHT22;3114;48.362;10.994;2023-03-23T09:11:07;15.90;99.90
6164;DHT22;3114;48.362;10.994;2023-03-23T09:13:36;16.00;99.90
6164;DHT22;3114;48.362;10.994;2023-03-23T09:16:05;16.10;99.90
6164;DHT22;3114;48.362;10.994;2023-03-23T09:18:33;16.20;99.90
6164;DHT22;3114;48.362;10.994;2023-03-23T09:21:01;16.10;99.90
6164;DHT22;3114;48.362;10.994;2023-03-23T09:23:30;16.20;99.90
6164;DHT22;3114;48.362;10.994;2023-03-23T09:25:59;15.60;99.90
6164;DHT22;3114;48.362;10.994;2023-03-23T09:28:27;16.20;99.90
6164;DHT22;3114;48.362;10.994;2023-03-23T09:30:54;16.30;99.90
6164;DHT22;3114;48.362;10.994;2023-03-23T09:33:23;16.30;99.90
6164;DHT22;3114;48.362;10.994;2023-03-23T09:35:52;16.40;99.90
6164;DHT22;3114;48.362;10.994;2023-03-23T09:38:19;16.50;99.90
6164;DHT22;3114;48.362;10.994;2023-03-23T09:40:54;16.50;99.90
6164;DHT22;3114;48.362;10.994;2023-03-23T09:43:34;16.50;99.90
6164;DHT22;3114;48.362;10.994;2023-03-23T09:46:13;16.40;99.90
6164;DHT22;3114;48.362;10.994;2023-03-23T09:48:49;16.60;99.90
6164;DHT22;3114;48.362;10.994;2023-03-23T09:51:24;16.70;99.90
6164;DHT22;3114;48.362;10.994;2023-03-23T09:53:57;16.70;99.90
6164;DHT22;3114;48.362;10.994;2023-03-23T09:56:30;16.70;99.90
6164;DHT22;3114;48.362;10.994;2023-03-23T09:59:00;16.60;99.90
6164;DHT22;3114;48.362;10.994;2023-03-23T10:01:33;16.50;99.90
6164;DHT22;3114;48.362;10.994;2023-03-23T10:04:05;16.50;99.90
6164;DHT22;3114;48.362;10.994;2023-03-23T10:06:34;16.50;99.90
6164;DHT22;3114;48.362;10.994;2023-03-23T10:09:03;16.50;99.90
6164;DHT22;3114;48.362;10.994;2023-03-23T10:11:41;16.50;99.90
6164;DHT22;3114;48.362;10.994;2023-03-23T10:14:21;16.40;99.90
6164;DHT22;3114;48.362;10.994;2023-03-23T10:17:03;16.40;99.90
6164;DHT22;3114;48.362;10.994;2023-03-23T10:19:35;16.40;99.90
6164;DHT22;3114;48.362;10.994;2023-03-23T10:22:05;16.40;99.90
6164;DHT22;3114;48.362;10.994;2023-03-23T10:24:38;16.50;99.90
6164;DHT22;3114;48.362;10.994;2023-03-23T10:27:18;16.50;99.90
6164;DHT22;3114;48.362;10.994;2023-03-23T10:29:50;16.50;99.90
6164;DHT22;3114;48.362;10.994;2023-03-23T10:32:35;16.50;99.90
6164;DHT22;3114;48.362;10.994;2023-03-23T10:35:06;16.50;99.90
6164;DHT22;3114;48.362;10.994;2023-03-23T10:37:38;16.60;99.90
6164;DHT22;3114;48.362;10.994;2023-03-23T10:40:13;16.60;99.90
6164;DHT22;3114;48.362;10.994;2023-03-23T10:42:46;16.60;99.90
6164;DHT22;3114;48.362;10.994;2023-03-23T10:45:21;16.70;99.90
6164;DHT22;3114;48.362;10.994;2023-03-23T10:47:54;16.80;99.90
6164;DHT22;3114;48.362;10.994;2023-03-23T10:50:25;16.80;99.90
6164;DHT22;3114;48.362;10.994;2023-03-23T10:52:56;16.80;99.90
6164;DHT22;3114;48.362;10.994;2023-03-23T10:55:25;16.80;99.90
6164;DHT22;3114;48.362;10.994;2023-03-23T10:58:04;16.90;99.90
6164;DHT22;3114;48.362;10.994;2023-03-23T11:00:39;17.10;99.90
6164;DHT22;3114;48.362;10.994;2023-03-23T11:03:22;17.10;99.90
6164;DHT22;3114;48.362;10.994;2023-03-23T11:05:53;17.40;99.90
6164;DHT22;3114;48.362;10.994;2023-03-23T11:08:24;17.40;99.90
6164;DHT22;3114;48.362;10.994;2023-03-23T11:10:56;17.60;99.90
6164;DHT22;3114;48.362;10.994;2023-03-23T11:13:31;17.70;99.90
6164;DHT22;3114;48.362;10.994;2023-03-23T11:16:00;17.70;99.90
6164;DHT22;3114;48.362;10.994;2023-03-23T11:18:38;18.80;99.90
6164;DHT22;3114;48.362;10.994;2023-03-23T11:21:07;18.90;99.90
6164;DHT22;3114;48.362;10.994;2023-03-23T11:23:37;17.40;99.90
6164;DHT22;3114;48.362;10.994;2023-03-23T11:26:13;17.30;99.90
6164;DHT22;3114;48.362;10.994;2023-03-23T11:28:47;17.90;99.90
6164;DHT22;3114;48.362;10.994;2023-03-23T11:31:16;17.70;99.90
6164;DHT22;3114;48.362;10.994;2023-03-23T11:33:51;17.60;99.90
6164;DHT22;3114;48.362;10.994;2023-03-23T11:36:19;17.50;99.90
6164;DHT22;3114;48.362;10.994;2023-03-23T11:38:53;16.80;99.90
6164;DHT22;3114;48.362;10.994;2023-03-23T11:41:23;17.50;99.90
6164;DHT22;3114;48.362;10.994;2023-03-23T11:43:53;17.30;99.90
6164;DHT22;3114;48.362;10.994;2023-03-23T11:46:33;17.40;99.90
6164;DHT22;3114;48.362;10.994;2023-03-23T11:49:08;17.70;99.90
6164;DHT22;3114;48.362;10.994;2023-03-23T11:51:40;17.80;99.90
6164;DHT22;3114;48.362;10.994;2023-03-23T11:54:13;17.40;99.90
6164;DHT22;3114;48.362;10.994;2023-03-23T11:56:49;18.10;99.90
6164;DHT22;3114;48.362;10.994;2023-03-23T11:59:25;18.20;99.90
6164;DHT22;3114;48.362;10.994;2023-03-23T12:01:56;18.10;99.90
6164;DHT22;3114;48.362;10.994;2023-03-23T12:04:40;17.10;99.90
6164;DHT22;3114;48.362;10.994;2023-03-23T12:07:21;18.00;99.90
6164;DHT22;3114;48.362;10.994;2023-03-23T12:09:57;17.90;99.90
6164;DHT22;3114;48.362;10.994;2023-03-23T12:12:35;17.90;99.90
6164;DHT22;3114;48.362;10.994;2023-03-23T12:15:13;17.70;99.90
6164;DHT22;3114;48.362;10.994;2023-03-23T12:17:51;17.70;99.90
6164;DHT22;3114;48.362;10.994;2023-03-23T12:20:29;17.70;99.90
6164;DHT22;3114;48.362;10.994;2023-03-23T12:23:08;17.50;99.90
6164;DHT22;3114;48.362;10.994;2023-03-23T12:26:01;17.40;99.90
6164;DHT22;3114;48.362;10.994;2023-03-23T12:28:40;17.40;99.90
6164;DHT22;3114;48.362;10.994;2023-03-23T12:31:20;17.30;99.90
6164;DHT22;3114;48.362;10.994;2023-03-23T12:33:56;17.30;99.90
6164;DHT22;3114;48.362;10.994;2023-03-23T12:36:34;17.40;99.90
6164;DHT22;3114;48.362;10.994;2023-03-23T12:42:21;17.40;99.90
6164;DHT22;3114;48.362;10.994;2023-03-23T12:44:53;17.40;99.90
6164;DHT22;3114;48.362;10.994;2023-03-23T12:47:37;17.30;99.90
6164;DHT22;3114;48.362;10.994;2023-03-23T12:50:13;17.20;99.90
6164;DHT22;3114;48.362;10.994;2023-03-23T12:52:49;17.30;99.90
6164;DHT22;3114;48.362;10.994;2023-03-23T12:55:20;17.50;99.90
6164;DHT22;3114;48.362;10.994;2023-03-23T12:57:53;17.40;99.90
6164;DHT22;3114;48.362;10.994;2023-03-23T13:00:29;17.20;99.90
6164;DHT22;3114;48.362;10.994;2023-03-23T13:03:02;17.30;99.90
6164;DHT22;3114;48.362;10.994;2023-03-23T13:05:39;17.40;99.90
6164;DHT22;3114;48.362;10.994;2023-03-23T13:08:15;17.30;99.90
6164;DHT22;3114;48.362;10.994;2023-03-23T13:10:45;17.30;99.90
6164;DHT22;3114;48.362;10.994;2023-03-23T13:13:17;17.20;99.90
6164;DHT22;3114;48.362;10.994;2023-03-23T13:15:56;17.20;99.90
6164;DHT22;3114;48.362;10.994;2023-03-23T13:18:34;17.40;99.90
6164;DHT22;3114;48.362;10.994;2023-03-23T13:21:12;17.50;99.90
6164;DHT22;3114;48.362;10.994;2023-03-23T13:23:43;17.50;99.90
6164;DHT22;3114;48.362;10.994;2023-03-23T13:26:13;17.50;99.90
6164;DHT22;3114;48.362;10.994;2023-03-23T13:28:55;17.40;99.90
6164;DHT22;3114;48.362;10.994;2023-03-23T13:31:25;17.60;99.90
6164;DHT22;3114;48.362;10.994;2023-03-23T13:34:03;17.90;99.90
6164;DHT22;3114;48.362;10.994;2023-03-23T13:36:36;18.00;99.90
6164;DHT22;3114;48.362;10.994;2023-03-23T13:39:05;18.10;99.90
6164;DHT22;3114;48.362;10.994;2023-03-23T13:41:45;18.20;99.90
6164;DHT22;3114;48.362;10.994;2023-03-23T13:44:26;18.10;99.90
6164;DHT22;3114;48.362;10.994;2023-03-23T13:46:55;17.90;99.90
6164;DHT22;3114;48.362;10.994;2023-03-23T13:49:26;18.00;99.90
6164;DHT22;3114;48.362;10.994;2023-03-23T13:52:17;18.10;99.90
6164;DHT22;3114;48.362;10.994;2023-03-23T13:54:46;17.90;99.90
6164;DHT22;3114;48.362;10.994;2023-03-23T13:57:34;18.10;99.90
6164;DHT22;3114;48.362;10.994;2023-03-23T14:00:24;18.20;99.90
6164;DHT22;3114;48.362;10.994;2023-03-23T14:03:01;18.30;99.90
6164;DHT22;3114;48.362;10.994;2023-03-23T14:05:35;18.00;99.90
6164;DHT22;3114;48.362;10.994;2023-03-23T14:08:13;17.80;99.90
6164;DHT22;3114;48.362;10.994;2023-03-23T14:10:42;17.60;99.90
6164;DHT22;3114;48.362;10.994;2023-03-23T14:13:20;17.60;99.90
6164;DHT22;3114;48.362;10.994;2023-03-23T14:15:57;17.60;99.90
6164;DHT22;3114;48.362;10.994;2023-03-23T14:18:29;17.50;99.90
6164;DHT22;3114;48.362;10.994;2023-03-23T14:20:59;17.60;99.90
6164;DHT22;3114;48.362;10.994;2023-03-23T14:23:31;17.30;99.90
6164;DHT22;3114;48.362;10.994;2023-03-23T14:26:01;17.30;99.90
6164;DHT22;3114;48.362;10.994;2023-03-23T14:28:39;17.20;99.90
6164;DHT22;3114;48.362;10.994;2023-03-23T14:31:18;17.20;99.90
6164;DHT22;3114;48.362;10.994;2023-03-23T14:33:46;17.20;99.90
6164;DHT22;3114;48.362;10.994;2023-03-23T14:36:20;17.00;99.90
6164;DHT22;3114;48.362;10.994;2023-03-23T14:39:00;17.10;99.90
6164;DHT22;3114;48.362;10.994;2023-03-23T14:41:29;17.20;99.90
6164;DHT22;3114;48.362;10.994;2023-03-23T14:43:58;17.10;99.90
6164;DHT22;3114;48.362;10.994;2023-03-23T14:46:26;17.00;99.90
6164;DHT22;3114;48.362;10.994;2023-03-23T14:48:54;17.10;99.90
6164;DHT22;3114;48.362;10.994;2023-03-23T14:51:24;17.10;99.90
6164;DHT22;3114;48.362;10.994;2023-03-23T14:53:54;17.00;99.90
6164;DHT22;3114;48.362;10.994;2023-03-23T14:56:22;17.00;99.90
6164;DHT22;3114;48.362;10.994;2023-03-23T14:58:53;17.00;99.90
6164;DHT22;3114;48.362;10.994;2023-03-23T15:01:26;17.00;99.90
6164;DHT22;3114;48.362;10.994;2023-03-23T15:03:57;16.80;99.90
6164;DHT22;3114;48.362;10.994;2023-03-23T15:06:32;16.80;99.90
6164;DHT22;3114;48.362;10.994;2023-03-23T15:09:02;16.80;99.90
6164;DHT22;3114;48.362;10.994;2023-03-23T15:11:32;16.70;99.90
6164;DHT22;3114;48.362;10.994;2023-03-23T15:14:16;16.70;99.90
6164;DHT22;3114;48.362;10.994;2023-03-23T15:16:46;16.60;99.90
6164;DHT22;3114;48.362;10.994;2023-03-23T15:19:17;16.60;99.90
6164;DHT22;3114;48.362;10.994;2023-03-23T15:21:52;16.60;99.90
6164;DHT22;3114;48.362;10.994;2023-03-23T15:24:31;16.70;99.90
6164;DHT22;3114;48.362;10.994;2023-03-23T15:27:10;16.70;99.90
6164;DHT22;3114;48.362;10.994;2023-03-23T15:29:47;16.60;99.90
6164;DHT22;3114;48.362;10.994;2023-03-23T15:32:24;16.60;99.90
6164;DHT22;3114;48.362;10.994;2023-03-23T15:34:51;16.50;99.90
6164;DHT22;3114;48.362;10.994;2023-03-23T15:37:25;16.50;99.90
6164;DHT22;3114;48.362;10.994;2023-03-23T15:39:55;16.30;99.90
6164;DHT22;3114;48.362;10.994;2023-03-23T15:42:27;16.40;99.90
6164;DHT22;3114;48.362;10.994;2023-03-23T15:45:04;15.10;99.90
6164;DHT22;3114;48.362;10.994;2023-03-23T15:47:44;16.20;99.90
6164;DHT22;3114;48.362;10.994;2023-03-23T15:50:15;16.10;99.90
6164;DHT22;3114;48.362;10.994;2023-03-23T15:52:45;16.10;99.90
6164;DHT22;3114;48.362;10.994;2023-03-23T15:55:22;16.00;99.90
6164;DHT22;3114;48.362;10.994;2023-03-23T15:58:00;16.00;99.90
6164;DHT22;3114;48.362;10.994;2023-03-23T16:00:31;16.00;99.90
6164;DHT22;3114;48.362;10.994;2023-03-23T16:03:03;16.00;99.90
6164;DHT22;3114;48.362;10.994;2023-03-23T16:05:30;16.00;99.90
6164;DHT22;3114;48.362;10.994;2023-03-23T16:07:59;16.20;99.90
6164;DHT22;3114;48.362;10.994;2023-03-23T16:10:27;15.90;99.90
6164;DHT22;3114;48.362;10.994;2023-03-23T16:12:55;15.90;99.90
6164;DHT22;3114;48.362;10.994;2023-03-23T16:15:25;15.90;99.90
6164;DHT22;3114;48.362;10.994;2023-03-23T16:17:55;15.90;99.90
6164;DHT22;3114;48.362;10.994;2023-03-23T16:20:27;15.90;99.90
6164;DHT22;3114;48.362;10.994;2023-03-23T16:22:55;15.90;99.90